BEL4BE EBBR-HBBA
Flight info
| Callsign | BEL4BE |
|---|---|
| Flight time | N/A |
| Altitude | 33000 |
| Route | CIV2X CIV N872 LESDO DCT KOVIN DCT DUCRA/N0477F350 UM728 RESMI UN857 DISAK DCT DIRMO DCT ETAMO DCT ADEKA DCT MOKDI DCT MEN DCT BADAM DCT FJR DCT DIVKO/N0472F370 DCT JUSQO DCT FIRRA DCT SUXER DCT KAMER UR978 CSO UM2 DJA UB730 ENDOK/N0471F390 UB730 DIR UG862 BUN DCT ASEKA/N0473F400 DCT MUBAK DCT EGREK UB527 KNM UL432 BJA DCT |
| Aircraft | A339/H-SADE1E2E3GHIJ3J5M1P2RWXY/LB2D1 |
Departure
| Time | 2026-05-04 10:16 |
|---|---|
| Airport | Brussels Airport (EBBR) |
Arrival
| Time | N/A |
|---|---|
| Airport | Bujumbura Melchior Ndadaye International Airport (HBBA) |
| Time | Latitude | Longitude | Altitude | Speed | Heading |
|---|---|---|---|---|---|
| 2026-05-04 10:02 | 50.90258 | 4.48028 | 126 ft | 0 kts | 156° |
| 2026-05-04 10:04 | 50.90259 | 4.48027 | 126 ft | 1 kts | 156° |
| 2026-05-04 10:04 | 50.90268 | 4.48021 | 125 ft | 0 kts | 156° |
| 2026-05-04 10:05 | 50.90280 | 4.48011 | 125 ft | 2 kts | 144° |
| 2026-05-04 10:05 | 50.90291 | 4.47995 | 124 ft | 2 kts | 129° |
| 2026-05-04 10:05 | 50.90300 | 4.47976 | 124 ft | 2 kts | 117° |
| 2026-05-04 10:05 | 50.90305 | 4.47954 | 123 ft | 2 kts | 103° |
| 2026-05-04 10:06 | 50.90308 | 4.47931 | 123 ft | 2 kts | 91° |
| 2026-05-04 10:06 | 50.90306 | 4.47908 | 123 ft | 2 kts | 78° |
| 2026-05-04 10:06 | 50.90303 | 4.47888 | 123 ft | 0 kts | 67° |
| 2026-05-04 10:08 | 50.90301 | 4.47881 | 123 ft | 0 kts | 65° |
| 2026-05-04 10:10 | 50.90302 | 4.47886 | 123 ft | 2 kts | 65° |
| 2026-05-04 10:10 | 50.90322 | 4.47952 | 123 ft | 10 kts | 66° |
| 2026-05-04 10:10 | 50.90360 | 4.48084 | 123 ft | 15 kts | 65° |
| 2026-05-04 10:10 | 50.90408 | 4.48252 | 124 ft | 17 kts | 66° |
| 2026-05-04 10:11 | 50.90462 | 4.48434 | 124 ft | 19 kts | 64° |
| 2026-05-04 10:11 | 50.90518 | 4.48634 | 124 ft | 20 kts | 66° |
| 2026-05-04 10:11 | 50.90579 | 4.48837 | 126 ft | 20 kts | 64° |
| 2026-05-04 10:11 | 50.90638 | 4.49034 | 128 ft | 19 kts | 66° |
| 2026-05-04 10:12 | 50.90690 | 4.49220 | 129 ft | 18 kts | 67° |
| 2026-05-04 10:12 | 50.90740 | 4.49402 | 128 ft | 18 kts | 67° |
| 2026-05-04 10:12 | 50.90801 | 4.49589 | 123 ft | 18 kts | 41° |
| 2026-05-04 10:12 | 50.90904 | 4.49713 | 119 ft | 18 kts | 60° |
| 2026-05-04 10:13 | 50.90983 | 4.49881 | 116 ft | 19 kts | 46° |
| 2026-05-04 10:13 | 50.91098 | 4.49978 | 114 ft | 18 kts | 352° |
| 2026-05-04 10:13 | 50.91127 | 4.49821 | 113 ft | 16 kts | 249° |
| 2026-05-04 10:13 | 50.91123 | 4.49800 | 113 ft | 0 kts | 251° |
| 2026-05-04 10:14 | 50.91048 | 4.49550 | 115 ft | 60 kts | 244° |
| 2026-05-04 10:16 | 50.87312 | 4.38815 | 2581 ft | 209 kts | 220° |
| 2026-05-04 10:16 | 50.86177 | 4.37231 | 2888 ft | 225 kts | 225° |
| 2026-05-04 10:16 | 50.85029 | 4.35393 | 3213 ft | 243 kts | 228° |
| 2026-05-04 10:16 | 50.83850 | 4.33342 | 3568 ft | 259 kts | 229° |
| 2026-05-04 10:17 | 50.82617 | 4.31090 | 4192 ft | 265 kts | 230° |
| 2026-05-04 10:17 | 50.81411 | 4.28836 | 4901 ft | 266 kts | 230° |
| 2026-05-04 10:19 | 50.72840 | 4.12535 | 9374 ft | 282 kts | 230° |
| 2026-05-04 10:19 | 50.71589 | 4.10151 | 9960 ft | 284 kts | 230° |
| 2026-05-04 10:19 | 50.70322 | 4.07739 | 10424 ft | 292 kts | 230° |
| 2026-05-04 10:19 | 50.68999 | 4.05222 | 10688 ft | 307 kts | 230° |
| 2026-05-04 10:20 | 50.67604 | 4.02575 | 10948 ft | 322 kts | 230° |
| 2026-05-04 10:20 | 50.66135 | 3.99790 | 11206 ft | 336 kts | 230° |
| 2026-05-04 10:20 | 50.64605 | 3.96894 | 11457 ft | 351 kts | 229° |
| 2026-05-04 10:20 | 50.62999 | 3.93861 | 11705 ft | 365 kts | 229° |
| 2026-05-04 10:21 | 50.61321 | 3.90693 | 12050 ft | 376 kts | 229° |